Pollock, Missouri
Current Conditions -  °F | °C
As of 2:30 AM on Friday 28 Nov 2014 (Local Time) from KTVK Reporting Station
Few Clouds Few Clouds  
Wind Chill:   Ceiling: Unl
Heat Index: 19°   Visibility: 10mi
Dew Point: 14°   Wind: 12mph
Humidity: 80%   Direction: 130°SE
Pressure: 30.21"   Gusts: NA
Location:  40.36°N, 93.08°W
Report Text: KTVK 280830Z AUTO 13010KT 10SM FEW120 M07/M10 A3021 RMK AO2
Loading
Personal Weather Stations






























Interactive Weather Map New forecast layout! Learn more

10-Day Weather Forecast

Advertisements
Track Severe Weather on mobile